»·PEaware :: N896YH KBUR-KLAS

N896YH :: KBUR-KLAS

FLIGHT INFORMATION

Flight Status: Arrived
Operator: Privately registered:
United States
More flights under this callsign
Pilot: Hendrik S. (17810)
Aircraft: Unknown
(P28U)
More flights by this aircraft type
Origin: KBUR Bob Hope-Burbank
United States
Destination: KLAS McCarran Intl
United States
More flights between these airports :: More routes between these airports
Route: VNY3 DAG CRESO4
File this flight plan on PilotEdge
Remarks: I-5 Rating
Altitude:
(Current/Filed)
17,000ft
Speed:
(Current/Filed)
160kts
Departed: 27-Jul-18 10:00 AM
Arrived: 27-Jul-18 11:31 AM
Distance/Time
Traveled:
197nm/1:31
Distance/Time
To Go:
Arrived

Flight Plot

Page will automatically refresh every two minutes.

Flight plan parsing failed; only flown route is shown


Map Options




Map Legend


Flown Route
Filed Route
Departure Airport
Arrival Airport
Navaid (VOR, NDB)
Fix

Horizontal Profiles

Position Reports

Time Latitude Longitude Heading Altitude Ground
Speed
27-Jul-18 09:15 34.200500 -118.365995 182 733ft 0kts
27-Jul-18 09:16 34.200500 -118.365995 182 733ft 0kts
27-Jul-18 09:17 34.200500 -118.365995 182 733ft 0kts
27-Jul-18 09:18 34.200500 -118.365995 182 733ft 0kts
27-Jul-18 09:19 34.200500 -118.365995 182 733ft 0kts
27-Jul-18 09:20 34.200500 -118.365995 182 733ft 0kts
27-Jul-18 09:21 34.200500 -118.365995 182 733ft 0kts
27-Jul-18 09:22 34.200500 -118.365995 182 733ft 0kts
27-Jul-18 09:23 34.200500 -118.365995 182 733ft 0kts
27-Jul-18 09:24 34.200500 -118.365995 182 733ft 0kts
27-Jul-18 09:25 34.200500 -118.365995 182 733ft 0kts
27-Jul-18 09:26 34.200500 -118.365995 182 733ft 0kts
27-Jul-18 09:27 34.200500 -118.365995 182 733ft 0kts
27-Jul-18 09:28 34.200500 -118.365995 182 733ft 0kts
27-Jul-18 09:29 34.200500 -118.365995 182 733ft 0kts
27-Jul-18 09:30 34.200500 -118.365995 182 733ft 0kts
27-Jul-18 09:31 34.200500 -118.365995 182 733ft 0kts
27-Jul-18 09:32 34.200500 -118.365995 182 733ft 0kts
27-Jul-18 09:33 34.200500 -118.365995 182 733ft 0kts
27-Jul-18 09:34 34.200500 -118.365995 182 733ft 0kts
27-Jul-18 09:35 34.200500 -118.365995 182 733ft 0kts
27-Jul-18 09:36 34.200500 -118.365995 182 733ft 0kts
27-Jul-18 09:37 34.200500 -118.365995 182 733ft 0kts
27-Jul-18 09:38 34.200500 -118.365995 182 733ft 0kts
27-Jul-18 09:39 34.200500 -118.365995 182 733ft 0kts
27-Jul-18 09:40 34.200500 -118.365995 182 733ft 0kts
27-Jul-18 09:41 34.200500 -118.365995 182 733ft 0kts
27-Jul-18 09:42 34.200500 -118.365995 182 733ft 0kts
27-Jul-18 09:43 34.200500 -118.365995 182 733ft 0kts
27-Jul-18 09:44 34.200500 -118.365995 182 733ft 0kts
27-Jul-18 09:45 34.200500 -118.365995 181 733ft 0kts
27-Jul-18 09:46 34.200500 -118.365995 181 733ft 0kts
27-Jul-18 09:47 34.200500 -118.365995 181 733ft 0kts
27-Jul-18 09:48 34.200500 -118.365995 181 733ft 0kts
27-Jul-18 09:49 34.200500 -118.365995 181 733ft 0kts
27-Jul-18 09:50 34.200500 -118.365995 181 733ft 0kts
27-Jul-18 09:51 34.200500 -118.365995 181 733ft 0kts
27-Jul-18 09:52 34.200500 -118.365995 181 733ft 0kts
27-Jul-18 09:53 34.199092 -118.366308 278 733ft 11kts
27-Jul-18 09:54 34.198907 -118.369111 178 733ft 0kts
27-Jul-18 09:55 34.198907 -118.369111 178 733ft 0kts
27-Jul-18 09:56 34.198907 -118.369111 178 733ft 0kts
27-Jul-18 09:57 34.198907 -118.369111 178 733ft 0kts
27-Jul-18 09:58 34.198907 -118.369111 178 733ft 0kts
27-Jul-18 09:59 34.198864 -118.369108 172 733ft 2kts
27-Jul-18 10:00 34.198030 -118.369074 153 733ft 9kts
27-Jul-18 10:01 34.197881 -118.356801 90 1141ft 77kts
27-Jul-18 10:02 34.182797 -118.357603 223 2551ft 90kts
27-Jul-18 10:03 34.169583 -118.383378 300 3953ft 103kts
27-Jul-18 10:04 34.193691 -118.400499 332 5480ft 101kts
27-Jul-18 10:05 34.218747 -118.414923 357 6905ft 97kts
27-Jul-18 10:06 34.246681 -118.421533 351 8244ft 102kts
27-Jul-18 10:07 34.275628 -118.426382 354 9527ft 107kts
27-Jul-18 10:08 34.305446 -118.431278 350 10766ft 109kts
27-Jul-18 10:09 34.333833 -118.437709 350 11870ft 111kts
27-Jul-18 10:10 34.364481 -118.444879 350 12963ft 114kts
27-Jul-18 10:11 34.391204 -118.430980 51 13962ft 116kts
27-Jul-18 10:12 34.414162 -118.403708 51 14932ft 119kts
27-Jul-18 10:13 34.435379 -118.373469 54 15859ft 120kts
27-Jul-18 10:14 34.456354 -118.342031 54 16721ft 122kts
27-Jul-18 10:15 34.479619 -118.306922 51 17096ft 154kts
27-Jul-18 10:16 34.508555 -118.264597 55 17063ft 164kts
27-Jul-18 10:17 34.535864 -118.224675 53 17063ft 163kts
27-Jul-18 10:18 34.564953 -118.182858 53 17069ft 163kts
27-Jul-18 10:19 34.589614 -118.137408 61 17075ft 162kts
27-Jul-18 10:20 34.614788 -118.091802 58 17087ft 164kts
27-Jul-18 10:21 34.636599 -118.044650 88 17089ft 158kts
27-Jul-18 10:22 34.640525 -117.991705 88 17089ft 159kts
27-Jul-18 10:23 34.645777 -117.937757 86 17089ft 162kts
27-Jul-18 10:24 34.651701 -117.883308 86 17089ft 163kts
27-Jul-18 10:25 34.657862 -117.828672 86 17090ft 163kts
27-Jul-18 10:26 34.664562 -117.774386 74 17088ft 165kts
27-Jul-18 10:27 34.677430 -117.722358 104 17098ft 159kts
27-Jul-18 10:28 34.672470 -117.669513 71 17088ft 166kts
27-Jul-18 10:29 34.695881 -117.621125 67 17106ft 165kts
27-Jul-18 10:30 34.713320 -117.569876 73 17108ft 164kts
27-Jul-18 10:31 34.728298 -117.517414 74 17108ft 164kts
27-Jul-18 10:32 34.742641 -117.464877 75 17108ft 164kts
27-Jul-18 10:33 34.756296 -117.412007 76 17108ft 164kts
27-Jul-18 10:34 34.769690 -117.359007 76 17108ft 164kts
27-Jul-18 10:35 34.782444 -117.306762 77 17102ft 164kts
27-Jul-18 10:36 34.795523 -117.253555 77 17092ft 164kts
27-Jul-18 10:37 34.808703 -117.200274 77 17079ft 165kts
27-Jul-18 10:38 34.821909 -117.146936 77 17064ft 165kts
27-Jul-18 10:39 34.835207 -117.093171 77 17012ft 167kts
27-Jul-18 10:40 34.848490 -117.039450 77 17001ft 166kts
27-Jul-18 10:41 34.861755 -116.985637 78 16994ft 166kts
27-Jul-18 10:42 34.875013 -116.931726 78 16990ft 166kts
27-Jul-18 10:43 34.888309 -116.877526 79 16990ft 167kts
27-Jul-18 10:44 34.901942 -116.823389 78 16990ft 168kts
27-Jul-18 10:45 34.915574 -116.768596 78 16990ft 169kts
27-Jul-18 10:46 34.929053 -116.713672 78 16990ft 170kts
27-Jul-18 10:47 34.942552 -116.658302 78 16990ft 171kts
27-Jul-18 10:48 34.956350 -116.602816 77 16990ft 172kts
27-Jul-18 10:49 34.977776 -116.550649 59 16991ft 176kts
27-Jul-18 10:50 35.000954 -116.498370 64 16991ft 176kts
27-Jul-18 10:51 35.024143 -116.445784 62 16991ft 177kts
27-Jul-18 10:52 35.047972 -116.393320 62 16991ft 177kts
27-Jul-18 10:53 35.071245 -116.342401 63 16990ft 177kts
27-Jul-18 10:54 35.094870 -116.289716 62 16989ft 177kts
27-Jul-18 10:55 35.118171 -116.239413 62 16986ft 176kts
27-Jul-18 10:56 35.142096 -116.187573 62 16986ft 176kts
27-Jul-18 10:57 35.166009 -116.135428 62 16987ft 176kts
27-Jul-18 10:58 35.189887 -116.083190 62 16988ft 176kts
27-Jul-18 10:59 35.213701 -116.030988 62 16988ft 176kts
27-Jul-18 11:00 35.237561 -115.978598 62 16993ft 176kts
27-Jul-18 11:01 35.261313 -115.926364 62 17000ft 176kts
27-Jul-18 11:02 35.285113 -115.873938 62 17009ft 176kts
27-Jul-18 11:03 35.308910 -115.821627 61 17017ft 176kts
27-Jul-18 11:04 35.336381 -115.771980 48 17013ft 177kts
27-Jul-18 11:05 35.366819 -115.725378 55 16511ft 177kts
27-Jul-18 11:06 35.397665 -115.676640 49 15139ft 184kts
27-Jul-18 11:07 35.432619 -115.630737 48 13571ft 183kts
27-Jul-18 11:08 35.463782 -115.582114 52 11845ft 184kts
27-Jul-18 11:09 35.497480 -115.536061 48 10121ft 173kts
27-Jul-18 11:10 35.527080 -115.496257 61 10000ft 151kts
27-Jul-18 11:11 35.553400 -115.460436 37 10015ft 146kts
27-Jul-18 11:12 35.583402 -115.427154 42 10016ft 146kts
27-Jul-18 11:13 35.611976 -115.391155 45 10016ft 149kts
27-Jul-18 11:14 35.640336 -115.353489 46 10016ft 151kts
27-Jul-18 11:15 35.667567 -115.315952 47 10014ft 150kts
27-Jul-18 11:16 35.695431 -115.277502 47 10014ft 150kts
27-Jul-18 11:17 35.723255 -115.239153 47 10014ft 150kts
27-Jul-18 11:18 35.751110 -115.200752 47 10014ft 150kts
27-Jul-18 11:19 35.781214 -115.166192 18 9969ft 142kts
27-Jul-18 11:20 35.820287 -115.154067 10 9325ft 149kts
27-Jul-18 11:21 35.860974 -115.141179 12 8531ft 153kts
27-Jul-18 11:22 35.901195 -115.126694 14 7730ft 150kts
27-Jul-18 11:23 35.940790 -115.113146 11 6938ft 147kts
27-Jul-18 11:24 35.980068 -115.101527 11 6153ft 144kts
27-Jul-18 11:25 36.017471 -115.091847 12 5991ft 136kts
27-Jul-18 11:26 36.053375 -115.080857 13 5636ft 133kts
27-Jul-18 11:27 36.088832 -115.067308 16 4659ft 140kts
27-Jul-18 11:28 36.118474 -115.092085 300 3500ft 147kts
27-Jul-18 11:29 36.133024 -115.129866 259 2951ft 108kts
27-Jul-18 11:30 36.111387 -115.149816 200 2415ft 91kts
27-Jul-18 11:31 36.090249 -115.161807 202 2119ft 69kts
27-Jul-18 11:32 36.083699 -115.166796 225 2152ft 3kts
27-Jul-18 11:33 36.082861 -115.168420 351 2160ft 10kts
27-Jul-18 11:34 36.081675 -115.170745 339 2167ft 13kts
27-Jul-18 11:35 36.081994 -115.170787 359 2167ft 0kts
27-Jul-18 11:36 36.081994 -115.170787 359 2167ft 0kts
27-Jul-18 11:37 36.081994 -115.170787 359 2167ft 0kts
27-Jul-18 11:38 36.081994 -115.170787 359 2167ft 0kts
27-Jul-18 11:39 36.081994 -115.170787 359 2167ft 0kts
27-Jul-18 11:40 36.081994 -115.170787 359 2167ft 0kts
27-Jul-18 11:41 36.081994 -115.170787 359 2167ft 0kts
27-Jul-18 11:42 36.081994 -115.170787 359 2167ft 0kts
27-Jul-18 11:43 36.083888 -115.069329 21 4818ft 137kts

Navigation Log

Ident Type
Flight plan parsing failed, navigation log unavailable